sensor_id;sensor_type;location;lat;lon;timestamp;pressure;altitude;pressure_sealevel;temperature;humidity
12178;BME280;6152;48.728;9.256;2023-04-25T00:02:04;96490.94;;;7.34;100.00
12178;BME280;6152;48.728;9.256;2023-04-25T00:04:31;96498.06;;;7.30;100.00
12178;BME280;6152;48.728;9.256;2023-04-25T00:07:00;96491.28;;;7.28;100.00
12178;BME280;6152;48.728;9.256;2023-04-25T00:09:29;96496.56;;;7.26;100.00
12178;BME280;6152;48.728;9.256;2023-04-25T00:11:55;96496.56;;;7.26;100.00
12178;BME280;6152;48.728;9.256;2023-04-25T00:14:22;96492.41;;;7.24;100.00
12178;BME280;6152;48.728;9.256;2023-04-25T00:16:49;96483.50;;;7.28;100.00
12178;BME280;6152;48.728;9.256;2023-04-25T00:19:17;96478.25;;;7.29;100.00
12178;BME280;6152;48.728;9.256;2023-04-25T00:21:43;96474.00;;;7.28;100.00
12178;BME280;6152;48.728;9.256;2023-04-25T00:24:12;96474.19;;;7.25;100.00
12178;BME280;6152;48.728;9.256;2023-04-25T00:26:38;96475.59;;;7.31;100.00
12178;BME280;6152;48.728;9.256;2023-04-25T00:29:05;96474.00;;;7.28;100.00
12178;BME280;6152;48.728;9.256;2023-04-25T00:31:31;96481.88;;;7.27;100.00
12178;BME280;6152;48.728;9.256;2023-04-25T00:33:57;96481.22;;;7.23;100.00
12178;BME280;6152;48.728;9.256;2023-04-25T00:36:23;96478.69;;;7.22;100.00
12178;BME280;6152;48.728;9.256;2023-04-25T00:38:49;96476.22;;;7.20;100.00
12178;BME280;6152;48.728;9.256;2023-04-25T00:41:15;96478.22;;;7.15;100.00
12178;BME280;6152;48.728;9.256;2023-04-25T00:43:42;96476.53;;;7.14;100.00
12178;BME280;6152;48.728;9.256;2023-04-25T00:46:10;96481.66;;;7.16;100.00
12178;BME280;6152;48.728;9.256;2023-04-25T00:48:36;96479.91;;;7.16;100.00
12178;BME280;6152;48.728;9.256;2023-04-25T00:51:02;96471.38;;;7.14;100.00
12178;BME280;6152;48.728;9.256;2023-04-25T00:53:28;96467.69;;;7.18;100.00
12178;BME280;6152;48.728;9.256;2023-04-25T00:55:56;96461.69;;;7.18;100.00
12178;BME280;6152;48.728;9.256;2023-04-25T00:58:22;96455.84;;;7.14;100.00
12178;BME280;6152;48.728;9.256;2023-04-25T01:00:50;96457.69;;;7.12;100.00
12178;BME280;6152;48.728;9.256;2023-04-25T01:03:18;96458.63;;;7.11;100.00
12178;BME280;6152;48.728;9.256;2023-04-25T01:05:46;96464.72;;;7.10;100.00
12178;BME280;6152;48.728;9.256;2023-04-25T01:08:14;96459.56;;;7.10;100.00
12178;BME280;6152;48.728;9.256;2023-04-25T01:10:40;96448.44;;;7.08;100.00
12178;BME280;6152;48.728;9.256;2023-04-25T01:13:07;96441.69;;;7.05;100.00
12178;BME280;6152;48.728;9.256;2023-04-25T01:15:33;96440.88;;;7.05;100.00
12178;BME280;6152;48.728;9.256;2023-04-25T01:18:01;96445.13;;;7.06;100.00
12178;BME280;6152;48.728;9.256;2023-04-25T01:20:28;96445.13;;;7.06;100.00
12178;BME280;6152;48.728;9.256;2023-04-25T01:22:55;96451.03;;;7.08;100.00
12178;BME280;6152;48.728;9.256;2023-04-25T01:25:22;96437.38;;;7.06;100.00
12178;BME280;6152;48.728;9.256;2023-04-25T01:27:49;96435.03;;;7.01;100.00
12178;BME280;6152;48.728;9.256;2023-04-25T01:30:15;96434.31;;;6.99;100.00
12178;BME280;6152;48.728;9.256;2023-04-25T01:32:42;96432.69;;;6.97;100.00
12178;BME280;6152;48.728;9.256;2023-04-25T01:35:10;96426.69;;;6.96;100.00
12178;BME280;6152;48.728;9.256;2023-04-25T01:37:41;96432.69;;;6.97;100.00
12178;BME280;6152;48.728;9.256;2023-04-25T01:40:08;96436.22;;;6.96;100.00
12178;BME280;6152;48.728;9.256;2023-04-25T01:42:36;96439.63;;;6.96;100.00
12178;BME280;6152;48.728;9.256;2023-04-25T01:45:03;96441.41;;;6.96;100.00
12178;BME280;6152;48.728;9.256;2023-04-25T01:47:30;96441.47;;;6.94;100.00
12178;BME280;6152;48.728;9.256;2023-04-25T01:49:56;96439.13;;;6.90;100.00
12178;BME280;6152;48.728;9.256;2023-04-25T01:52:22;96432.81;;;6.80;100.00
12178;BME280;6152;48.728;9.256;2023-04-25T01:54:49;96433.28;;;6.72;100.00
12178;BME280;6152;48.728;9.256;2023-04-25T01:57:16;96434.44;;;6.67;100.00
12178;BME280;6152;48.728;9.256;2023-04-25T01:59:43;96437.19;;;6.64;100.00
12178;BME280;6152;48.728;9.256;2023-04-25T02:02:09;96429.63;;;6.60;100.00
12178;BME280;6152;48.728;9.256;2023-04-25T02:04:35;96430.81;;;6.55;100.00
12178;BME280;6152;48.728;9.256;2023-04-25T02:07:01;96430.69;;;6.56;100.00
12178;BME280;6152;48.728;9.256;2023-04-25T02:09:28;96426.63;;;6.52;100.00
12178;BME280;6152;48.728;9.256;2023-04-25T02:11:55;96417.13;;;6.53;100.00
12178;BME280;6152;48.728;9.256;2023-04-25T02:14:21;96423.28;;;6.50;100.00
12178;BME280;6152;48.728;9.256;2023-04-25T02:16:48;96419.94;;;6.48;100.00
12178;BME280;6152;48.728;9.256;2023-04-25T02:19:14;96424.63;;;6.42;100.00
12178;BME280;6152;48.728;9.256;2023-04-25T02:21:40;96422.97;;;6.41;100.00
12178;BME280;6152;48.728;9.256;2023-04-25T02:24:06;96413.63;;;6.38;100.00
12178;BME280;6152;48.728;9.256;2023-04-25T02:26:33;96419.47;;;6.42;100.00
12178;BME280;6152;48.728;9.256;2023-04-25T02:28:59;96411.63;;;6.43;100.00
12178;BME280;6152;48.728;9.256;2023-04-25T02:31:25;96415.13;;;6.42;100.00
12178;BME280;6152;48.728;9.256;2023-04-25T02:33:52;96416.81;;;6.43;100.00
12178;BME280;6152;48.728;9.256;2023-04-25T02:36:18;96412.13;;;6.50;100.00
12178;BME280;6152;48.728;9.256;2023-04-25T02:38:44;96413.13;;;6.47;100.00
12178;BME280;6152;48.728;9.256;2023-04-25T02:41:10;96413.97;;;6.48;100.00
12178;BME280;6152;48.728;9.256;2023-04-25T02:43:36;96407.78;;;6.50;100.00
12178;BME280;6152;48.728;9.256;2023-04-25T02:46:03;96416.44;;;6.49;100.00
12178;BME280;6152;48.728;9.256;2023-04-25T02:48:29;96404.44;;;6.48;100.00
12178;BME280;6152;48.728;9.256;2023-04-25T02:50:55;96404.44;;;6.48;100.00
12178;BME280;6152;48.728;9.256;2023-04-25T02:53:21;96406.13;;;6.49;100.00
12178;BME280;6152;48.728;9.256;2023-04-25T02:55:47;96409.28;;;6.54;100.00
12178;BME280;6152;48.728;9.256;2023-04-25T02:58:13;96410.03;;;6.56;100.00
12178;BME280;6152;48.728;9.256;2023-04-25T03:00:41;96405.75;;;6.55;100.00
12178;BME280;6152;48.728;9.256;2023-04-25T03:03:07;96412.72;;;6.55;100.00
12178;BME280;6152;48.728;9.256;2023-04-25T03:05:33;96402.44;;;6.53;100.00
12178;BME280;6152;48.728;9.256;2023-04-25T03:07:59;96402.63;;;6.50;100.00
12178;BME280;6152;48.728;9.256;2023-04-25T03:10:25;96407.78;;;6.50;100.00
12178;BME280;6152;48.728;9.256;2023-04-25T03:12:51;96405.94;;;6.52;100.00
12178;BME280;6152;48.728;9.256;2023-04-25T03:15:18;96408.81;;;6.48;100.00
12178;BME280;6152;48.728;9.256;2023-04-25T03:17:44;96400.22;;;6.47;100.00
12178;BME280;6152;48.728;9.256;2023-04-25T03:20:11;96403.63;;;6.48;100.00
12178;BME280;6152;48.728;9.256;2023-04-25T03:22:37;96393.19;;;6.49;100.00
12178;BME280;6152;48.728;9.256;2023-04-25T03:25:04;96395.94;;;6.46;100.00
12178;BME280;6152;48.728;9.256;2023-04-25T03:27:30;96393.72;;;6.40;100.00
12178;BME280;6152;48.728;9.256;2023-04-25T03:29:56;96398.97;;;6.39;100.00
12178;BME280;6152;48.728;9.256;2023-04-25T03:32:22;96391.47;;;6.34;100.00
12178;BME280;6152;48.728;9.256;2023-04-25T03:34:49;96398.28;;;6.35;100.00
12178;BME280;6152;48.728;9.256;2023-04-25T03:37:15;96390.66;;;6.34;100.00
12178;BME280;6152;48.728;9.256;2023-04-25T03:39:41;96390.81;;;6.31;100.00
12178;BME280;6152;48.728;9.256;2023-04-25T03:42:07;96390.88;;;6.29;100.00
12178;BME280;6152;48.728;9.256;2023-04-25T03:44:33;96383.13;;;6.29;100.00
12178;BME280;6152;48.728;9.256;2023-04-25T03:46:59;96390.16;;;6.27;100.00
12178;BME280;6152;48.728;9.256;2023-04-25T03:49:25;96390.97;;;6.28;100.00
12178;BME280;6152;48.728;9.256;2023-04-25T03:51:51;96389.03;;;6.31;100.00
12178;BME280;6152;48.728;9.256;2023-04-25T03:54:18;96388.13;;;6.32;100.00
12178;BME280;6152;48.728;9.256;2023-04-25T03:56:44;96396.78;;;6.31;100.00
12178;BME280;6152;48.728;9.256;2023-04-25T03:59:10;96390.88;;;6.29;100.00
12178;BME280;6152;48.728;9.256;2023-04-25T04:01:36;96391.78;;;6.28;100.00
12178;BME280;6152;48.728;9.256;2023-04-25T04:04:02;96395.31;;;6.27;100.00
12178;BME280;6152;48.728;9.256;2023-04-25T04:06:28;96391.97;;;6.25;100.00
12178;BME280;6152;48.728;9.256;2023-04-25T04:08:55;96391.13;;;6.25;100.00
12178;BME280;6152;48.728;9.256;2023-04-25T04:11:21;96392.13;;;6.22;100.00
12178;BME280;6152;48.728;9.256;2023-04-25T04:13:47;96394.13;;;6.17;100.00
12178;BME280;6152;48.728;9.256;2023-04-25T04:16:13;96395.81;;;6.18;100.00
12178;BME280;6152;48.728;9.256;2023-04-25T04:18:39;96391.41;;;6.20;100.00
12178;BME280;6152;48.728;9.256;2023-04-25T04:21:05;96399.97;;;6.21;100.00
12178;BME280;6152;48.728;9.256;2023-04-25T04:23:31;96396.47;;;6.22;100.00
12178;BME280;6152;48.728;9.256;2023-04-25T04:25:58;96394.66;;;6.24;100.00
12178;BME280;6152;48.728;9.256;2023-04-25T04:28:24;96398.81;;;6.26;100.00
12178;BME280;6152;48.728;9.256;2023-04-25T04:30:51;96396.97;;;6.28;100.00
12178;BME280;6152;48.728;9.256;2023-04-25T04:33:18;96401.97;;;6.31;100.00
12178;BME280;6152;48.728;9.256;2023-04-25T04:35:45;96403.47;;;6.35;100.00
12178;BME280;6152;48.728;9.256;2023-04-25T04:38:13;96405.88;;;6.38;100.00
12178;BME280;6152;48.728;9.256;2023-04-25T04:40:41;96416.97;;;6.40;100.00
12178;BME280;6152;48.728;9.256;2023-04-25T04:43:09;96414.94;;;6.45;100.00
12178;BME280;6152;48.728;9.256;2023-04-25T04:45:36;96417.47;;;6.47;100.00
12178;BME280;6152;48.728;9.256;2023-04-25T04:48:05;96411.94;;;6.53;100.00
12178;BME280;6152;48.728;9.256;2023-04-25T04:50:32;96414.28;;;6.57;100.00
12178;BME280;6152;48.728;9.256;2023-04-25T04:52:58;96414.78;;;6.64;100.00
12178;BME280;6152;48.728;9.256;2023-04-25T04:55:24;96423.09;;;6.69;100.00
12178;BME280;6152;48.728;9.256;2023-04-25T04:57:50;96426.91;;;6.78;100.00
12178;BME280;6152;48.728;9.256;2023-04-25T05:00:17;96429.81;;;6.87;100.00
12178;BME280;6152;48.728;9.256;2023-04-25T05:02:43;96427.81;;;6.92;100.00
12178;BME280;6152;48.728;9.256;2023-04-25T05:05:10;96430.88;;;6.99;100.00
12178;BME280;6152;48.728;9.256;2023-04-25T05:07:36;96434.56;;;6.95;100.00
12178;BME280;6152;48.728;9.256;2023-04-25T05:10:02;96431.06;;;6.96;100.00
12178;BME280;6152;48.728;9.256;2023-04-25T05:12:29;96430.28;;;6.94;100.00
12178;BME280;6152;48.728;9.256;2023-04-25T05:14:56;96429.56;;;6.92;100.00
12178;BME280;6152;48.728;9.256;2023-04-25T05:17:22;96428.66;;;6.93;100.00
12178;BME280;6152;48.728;9.256;2023-04-25T05:19:48;96431.88;;;6.96;100.00
12178;BME280;6152;48.728;9.256;2023-04-25T05:22:14;96431.72;;;6.99;100.00
12178;BME280;6152;48.728;9.256;2023-04-25T05:24:40;96431.78;;;6.98;100.00
12178;BME280;6152;48.728;9.256;2023-04-25T05:27:06;96434.19;;;7.01;100.00
12178;BME280;6152;48.728;9.256;2023-04-25T05:29:33;96435.63;;;7.06;100.00
12178;BME280;6152;48.728;9.256;2023-04-25T05:32:05;96438.50;;;7.16;100.00
12178;BME280;6152;48.728;9.256;2023-04-25T05:34:35;96433.31;;;7.16;100.00
12178;BME280;6152;48.728;9.256;2023-04-25T05:37:01;96440.91;;;7.19;100.00
12178;BME280;6152;48.728;9.256;2023-04-25T05:39:27;96439.69;;;7.25;100.00
12178;BME280;6152;48.728;9.256;2023-04-25T05:41:53;96436.84;;;7.29;100.00
12178;BME280;6152;48.728;9.256;2023-04-25T05:44:19;96440.38;;;7.42;100.00
12178;BME280;6152;48.728;9.256;2023-04-25T05:46:45;96440.78;;;7.50;100.00
12178;BME280;6152;48.728;9.256;2023-04-25T05:49:12;96442.81;;;7.59;100.00
12178;BME280;6152;48.728;9.256;2023-04-25T05:51:38;96444.31;;;7.63;100.00
12178;BME280;6152;48.728;9.256;2023-04-25T05:54:04;96444.69;;;7.72;100.00
12178;BME280;6152;48.728;9.256;2023-04-25T05:56:30;96435.44;;;7.82;100.00
12178;BME280;6152;48.728;9.256;2023-04-25T05:58:56;96431.53;;;7.89;100.00
12178;BME280;6152;48.728;9.256;2023-04-25T06:01:23;96428.19;;;8.01;100.00
12178;BME280;6152;48.728;9.256;2023-04-25T06:03:49;96439.91;;;8.21;100.00
12178;BME280;6152;48.728;9.256;2023-04-25T06:06:17;96444.19;;;8.36;100.00
12178;BME280;6152;48.728;9.256;2023-04-25T06:08:43;96444.25;;;8.48;100.00
12178;BME280;6152;48.728;9.256;2023-04-25T06:11:09;96448.69;;;8.46;100.00
12178;BME280;6152;48.728;9.256;2023-04-25T06:13:35;96441.31;;;8.40;100.00
12178;BME280;6152;48.728;9.256;2023-04-25T06:16:01;96438.72;;;8.26;100.00
12178;BME280;6152;48.728;9.256;2023-04-25T06:18:27;96449.66;;;8.31;100.00
12178;BME280;6152;48.728;9.256;2023-04-25T06:20:53;96440.03;;;8.33;100.00
12178;BME280;6152;48.728;9.256;2023-04-25T06:23:19;96444.38;;;8.33;100.00
12178;BME280;6152;48.728;9.256;2023-04-25T06:25:46;96435.03;;;8.30;100.00
12178;BME280;6152;48.728;9.256;2023-04-25T06:28:12;96428.19;;;8.29;100.00
12178;BME280;6152;48.728;9.256;2023-04-25T06:30:38;96434.84;;;8.33;100.00
12178;BME280;6152;48.728;9.256;2023-04-25T06:33:04;96424.84;;;8.27;100.00
12178;BME280;6152;48.728;9.256;2023-04-25T06:35:30;96430.81;;;8.28;100.00
12178;BME280;6152;48.728;9.256;2023-04-25T06:37:56;96424.47;;;8.19;100.00
12178;BME280;6152;48.728;9.256;2023-04-25T06:40:22;96422.28;;;8.13;100.00
12178;BME280;6152;48.728;9.256;2023-04-25T06:42:49;96425.97;;;8.09;100.00
12178;BME280;6152;48.728;9.256;2023-04-25T06:45:15;96420.59;;;8.12;100.00
12178;BME280;6152;48.728;9.256;2023-04-25T06:47:41;96414.72;;;7.96;100.00
12178;BME280;6152;48.728;9.256;2023-04-25T06:50:07;96420.63;;;7.98;100.00
12178;BME280;6152;48.728;9.256;2023-04-25T06:52:33;96419.44;;;7.89;100.00
12178;BME280;6152;48.728;9.256;2023-04-25T06:54:59;96424.13;;;7.83;100.00
12178;BME280;6152;48.728;9.256;2023-04-25T06:57:26;96418.03;;;7.84;100.00
12178;BME280;6152;48.728;9.256;2023-04-25T06:59:52;96420.63;;;7.84;100.00
12178;BME280;6152;48.728;9.256;2023-04-25T07:02:18;96427.28;;;7.88;100.00
12178;BME280;6152;48.728;9.256;2023-04-25T07:04:44;96428.84;;;7.76;100.00
12178;BME280;6152;48.728;9.256;2023-04-25T07:07:11;96431.91;;;7.69;100.00
12178;BME280;6152;48.728;9.256;2023-04-25T07:09:37;96424.16;;;7.69;100.00
12178;BME280;6152;48.728;9.256;2023-04-25T07:12:04;96436.91;;;7.72;100.00
12178;BME280;6152;48.728;9.256;2023-04-25T07:14:30;96443.09;;;7.69;100.00
12178;BME280;6152;48.728;9.256;2023-04-25T07:16:56;96435.25;;;7.71;100.00
12178;BME280;6152;48.728;9.256;2023-04-25T07:19:23;96436.72;;;7.75;100.00
12178;BME280;6152;48.728;9.256;2023-04-25T07:21:55;96444.31;;;7.78;100.00
12178;BME280;6152;48.728;9.256;2023-04-25T07:24:21;96445.97;;;7.79;100.00
12178;BME280;6152;48.728;9.256;2023-04-25T07:26:47;96447.09;;;7.75;100.00
12178;BME280;6152;48.728;9.256;2023-04-25T07:29:13;96443.38;;;7.79;100.00
12178;BME280;6152;48.728;9.256;2023-04-25T07:31:39;96445.78;;;7.82;100.00
12178;BME280;6152;48.728;9.256;2023-04-25T07:34:06;96446.25;;;7.88;100.00
12178;BME280;6152;48.728;9.256;2023-04-25T07:36:32;96448.38;;;7.82;100.00
12178;BME280;6152;48.728;9.256;2023-04-25T07:38:58;96450.97;;;7.68;100.00
12178;BME280;6152;48.728;9.256;2023-04-25T07:41:24;96453.34;;;7.56;100.00
12178;BME280;6152;48.728;9.256;2023-04-25T07:43:50;96449.94;;;7.56;100.00
12178;BME280;6152;48.728;9.256;2023-04-25T07:46:16;96464.53;;;7.57;100.00
12178;BME280;6152;48.728;9.256;2023-04-25T07:48:42;96458.72;;;7.53;100.00
12178;BME280;6152;48.728;9.256;2023-04-25T07:51:08;96467.13;;;7.57;100.00
12178;BME280;6152;48.728;9.256;2023-04-25T07:53:35;96476.44;;;7.45;100.00
12178;BME280;6152;48.728;9.256;2023-04-25T07:56:03;96472.53;;;7.38;100.00
12178;BME280;6152;48.728;9.256;2023-04-25T07:58:29;96478.84;;;7.34;100.00
12178;BME280;6152;48.728;9.256;2023-04-25T08:00:55;96482.13;;;7.22;100.00
12178;BME280;6152;48.728;9.256;2023-04-25T08:03:21;96486.56;;;7.20;100.00
12178;BME280;6152;48.728;9.256;2023-04-25T08:05:47;96481.81;;;7.13;100.00
12178;BME280;6152;48.728;9.256;2023-04-25T08:08:13;96492.91;;;7.15;100.00
12178;BME280;6152;48.728;9.256;2023-04-25T08:10:41;96490.44;;;7.13;100.00
12178;BME280;6152;48.728;9.256;2023-04-25T08:13:08;96495.59;;;7.13;100.00
12178;BME280;6152;48.728;9.256;2023-04-25T08:15:34;96495.59;;;7.13;100.00
12178;BME280;6152;48.728;9.256;2023-04-25T08:18:00;96498.38;;;7.10;100.00
12178;BME280;6152;48.728;9.256;2023-04-25T08:20:26;96497.03;;;7.03;100.00
12178;BME280;6152;48.728;9.256;2023-04-25T08:22:52;96504.63;;;7.06;100.00
12178;BME280;6152;48.728;9.256;2023-04-25T08:25:18;96499.03;;;6.98;100.00
12178;BME280;6152;48.728;9.256;2023-04-25T08:27:44;96494.47;;;7.03;100.00
12178;BME280;6152;48.728;9.256;2023-04-25T08:30:11;96504.94;;;7.00;100.00
12178;BME280;6152;48.728;9.256;2023-04-25T08:32:37;96506.25;;;6.93;100.00
12178;BME280;6152;48.728;9.256;2023-04-25T08:35:06;96511.72;;;6.87;100.00
12178;BME280;6152;48.728;9.256;2023-04-25T08:37:33;96518.16;;;6.80;100.00
12178;BME280;6152;48.728;9.256;2023-04-25T08:39:59;96519.09;;;6.79;100.00
12178;BME280;6152;48.728;9.256;2023-04-25T08:42:27;96526.00;;;6.94;100.00
12178;BME280;6152;48.728;9.256;2023-04-25T08:44:54;96529.84;;;6.87;100.00
12178;BME280;6152;48.728;9.256;2023-04-25T08:47:22;96539.34;;;6.86;100.00
12178;BME280;6152;48.728;9.256;2023-04-25T08:49:50;96538.66;;;6.83;100.00
12178;BME280;6152;48.728;9.256;2023-04-25T08:52:23;96531.84;;;6.82;100.00
12178;BME280;6152;48.728;9.256;2023-04-25T08:54:50;96539.44;;;6.85;100.00
12178;BME280;6152;48.728;9.256;2023-04-25T08:57:17;96547.63;;;6.93;100.00
12178;BME280;6152;48.728;9.256;2023-04-25T08:59:44;96542.16;;;6.97;100.00
12178;BME280;6152;48.728;9.256;2023-04-25T09:02:12;96552.28;;;6.86;100.00
12178;BME280;6152;48.728;9.256;2023-04-25T09:04:43;96552.53;;;6.82;100.00
12178;BME280;6152;48.728;9.256;2023-04-25T09:07:10;96550.69;;;6.84;100.00
12178;BME280;6152;48.728;9.256;2023-04-25T09:09:36;96556.38;;;6.75;100.00
12178;BME280;6152;48.728;9.256;2023-04-25T09:12:02;96558.19;;;6.73;100.00
12178;BME280;6152;48.728;9.256;2023-04-25T09:14:28;96559.13;;;6.72;100.00
12178;BME280;6152;48.728;9.256;2023-04-25T09:19:30;96571.88;;;6.75;100.00
12178;BME280;6152;48.728;9.256;2023-04-25T09:21:58;96576.66;;;6.82;100.00
12178;BME280;6152;48.728;9.256;2023-04-25T09:24:38;96573.06;;;6.85;100.00
12178;BME280;6152;48.728;9.256;2023-04-25T09:27:09;96572.22;;;6.84;100.00
12178;BME280;6152;48.728;9.256;2023-04-25T09:29:38;96583.22;;;6.88;100.00
12178;BME280;6152;48.728;9.256;2023-04-25T09:32:22;96579.97;;;6.84;100.00
12178;BME280;6152;48.728;9.256;2023-04-25T09:34:50;96593.47;;;6.74;100.00
12178;BME280;6152;48.728;9.256;2023-04-25T09:37:28;96590.91;;;6.74;100.00
12178;BME280;6152;48.728;9.256;2023-04-25T09:39:57;96599.06;;;6.66;100.00
12178;BME280;6152;48.728;9.256;2023-04-25T09:42:26;96607.75;;;6.65;100.00
12178;BME280;6152;48.728;9.256;2023-04-25T09:44:56;96604.72;;;6.73;100.00
12178;BME280;6152;48.728;9.256;2023-04-25T09:47:26;96607.94;;;6.78;100.00
12178;BME280;6152;48.728;9.256;2023-04-25T09:49:54;96615.09;;;6.88;100.00
12178;BME280;6152;48.728;9.256;2023-04-25T09:52:25;96614.34;;;7.02;100.00
12178;BME280;6152;48.728;9.256;2023-04-25T09:54:51;96611.78;;;7.02;100.00
12178;BME280;6152;48.728;9.256;2023-04-25T09:59:49;96619.28;;;6.91;100.00
12178;BME280;6152;48.728;9.256;2023-04-25T10:02:20;96632.19;;;6.75;100.00
12178;BME280;6152;48.728;9.256;2023-04-25T10:04:49;96632.66;;;6.66;100.00
12178;BME280;6152;48.728;9.256;2023-04-25T10:07:22;96636.59;;;6.57;100.00
12178;BME280;6152;48.728;9.256;2023-04-25T10:10:00;96632.25;;;6.58;100.00
12178;BME280;6152;48.728;9.256;2023-04-25T10:12:29;96638.22;;;6.58;100.00
12178;BME280;6152;48.728;9.256;2023-04-25T10:14:55;96640.91;;;6.57;100.00
12178;BME280;6152;48.728;9.256;2023-04-25T10:17:23;96637.66;;;6.53;100.00
12178;BME280;6152;48.728;9.256;2023-04-25T10:19:49;96651.47;;;6.37;100.00
12178;BME280;6152;48.728;9.256;2023-04-25T10:22:41;96658.00;;;6.27;100.00
12178;BME280;6152;48.728;9.256;2023-04-25T10:25:08;96655.44;;;6.27;100.00
12178;BME280;6152;48.728;9.256;2023-04-25T10:27:35;96658.59;;;6.32;100.00
12178;BME280;6152;48.728;9.256;2023-04-25T10:30:10;96661.53;;;6.41;100.00
12178;BME280;6152;48.728;9.256;2023-04-25T10:32:38;96663.84;;;6.47;100.00
12178;BME280;6152;48.728;9.256;2023-04-25T10:35:30;96664.56;;;6.49;100.00
12178;BME280;6152;48.728;9.256;2023-04-25T10:37:59;96676.59;;;6.50;100.00
12178;BME280;6152;48.728;9.256;2023-04-25T10:40:25;96676.28;;;6.56;100.00
12178;BME280;6152;48.728;9.256;2023-04-25T10:42:55;96676.09;;;6.59;100.00
12178;BME280;6152;48.728;9.256;2023-04-25T10:45:22;96684.19;;;6.53;100.00
12178;BME280;6152;48.728;9.256;2023-04-25T10:47:48;96677.78;;;6.60;100.00
12178;BME280;6152;48.728;9.256;2023-04-25T10:50:17;96684.63;;;6.62;100.00
12178;BME280;6152;48.728;9.256;2023-04-25T10:52:43;96683.63;;;6.64;100.00
12178;BME280;6152;48.728;9.256;2023-04-25T10:55:10;96682.06;;;6.62;100.00
12178;BME280;6152;48.728;9.256;2023-04-25T10:57:42;96679.75;;;6.55;100.00
12178;BME280;6152;48.728;9.256;2023-04-25T11:00:17;96690.25;;;6.52;100.00
12178;BME280;6152;48.728;9.256;2023-04-25T11:02:51;96692.56;;;6.41;100.00
12178;BME280;6152;48.728;9.256;2023-04-25T11:05:34;96690.06;;;6.40;100.00
12178;BME280;6152;48.728;9.256;2023-04-25T11:08:01;96693.16;;;6.46;100.00
12178;BME280;6152;48.728;9.256;2023-04-25T11:10:31;96694.00;;;6.47;100.00
12178;BME280;6152;48.728;9.256;2023-04-25T11:13:00;96698.56;;;6.42;100.00
12178;BME280;6152;48.728;9.256;2023-04-25T11:15:27;96707.53;;;6.35;100.00
12178;BME280;6152;48.728;9.256;2023-04-25T11:17:54;96716.22;;;6.34;100.00
12178;BME280;6152;48.728;9.256;2023-04-25T11:20:22;96719.03;;;6.29;100.00
12178;BME280;6152;48.728;9.256;2023-04-25T11:22:48;96720.47;;;6.18;100.00
12178;BME280;6152;48.728;9.256;2023-04-25T11:25:15;96718.41;;;6.07;100.00
12178;BME280;6152;48.728;9.256;2023-04-25T11:27:55;96720.09;;;6.08;100.00
12178;BME280;6152;48.728;9.256;2023-04-25T11:30:25;96717.66;;;6.05;100.00
12178;BME280;6152;48.728;9.256;2023-04-25T11:32:52;96722.50;;;6.11;100.00
12178;BME280;6152;48.728;9.256;2023-04-25T11:35:19;96725.09;;;6.11;100.00
12178;BME280;6152;48.728;9.256;2023-04-25T11:37:47;96728.75;;;6.24;100.00
12178;BME280;6152;48.728;9.256;2023-04-25T11:40:13;96733.78;;;6.10;100.00
12178;BME280;6152;48.728;9.256;2023-04-25T11:42:44;96730.41;;;6.08;100.00
12178;BME280;6152;48.728;9.256;2023-04-25T11:45:11;96733.22;;;6.03;100.00
12178;BME280;6152;48.728;9.256;2023-04-25T11:47:37;96729.66;;;6.23;100.00
12178;BME280;6152;48.728;9.256;2023-04-25T11:50:05;96735.91;;;6.36;100.00
12178;BME280;6152;48.728;9.256;2023-04-25T11:52:44;96738.16;;;6.42;100.00
12178;BME280;6152;48.728;9.256;2023-04-25T11:55:17;96740.91;;;6.39;100.00
12178;BME280;6152;48.728;9.256;2023-04-25T11:57:45;96748.66;;;6.56;100.00
12178;BME280;6152;48.728;9.256;2023-04-25T12:00:14;96745.31;;;6.54;100.00
12178;BME280;6152;48.728;9.256;2023-04-25T12:02:43;96744.38;;;6.55;100.00
12178;BME280;6152;48.728;9.256;2023-04-25T12:05:11;96743.22;;;6.78;100.00
12178;BME280;6152;48.728;9.256;2023-04-25T12:07:38;96757.38;;;7.04;100.00
12178;BME280;6152;48.728;9.256;2023-04-25T12:10:09;96756.75;;;7.16;100.00
12178;BME280;6152;48.728;9.256;2023-04-25T12:12:36;96762.03;;;7.30;100.00
12178;BME280;6152;48.728;9.256;2023-04-25T12:15:17;96757.75;;;7.29;100.00
12178;BME280;6152;48.728;9.256;2023-04-25T12:17:50;96764.34;;;7.35;100.00
12178;BME280;6152;48.728;9.256;2023-04-25T12:20:21;96764.28;;;7.36;100.00
12178;BME280;6152;48.728;9.256;2023-04-25T12:22:50;96770.38;;;7.35;100.00
12178;BME280;6152;48.728;9.256;2023-04-25T12:28:11;96768.16;;;7.60;100.00
12178;BME280;6152;48.728;9.256;2023-04-25T12:33:24;96771.97;;;7.85;100.00
12178;BME280;6152;48.728;9.256;2023-04-25T12:35:50;96780.91;;;7.95;100.00
12178;BME280;6152;48.728;9.256;2023-04-25T12:38:27;96780.56;;;8.01;100.00
12178;BME280;6152;48.728;9.256;2023-04-25T12:40:53;96777.84;;;7.88;100.00
12178;BME280;6152;48.728;9.256;2023-04-25T12:43:20;96790.69;;;7.90;100.00
12178;BME280;6152;48.728;9.256;2023-04-25T12:45:51;96791.81;;;7.86;100.00
12178;BME280;6152;48.728;9.256;2023-04-25T12:48:18;96796.38;;;7.81;100.00
12178;BME280;6152;48.728;9.256;2023-04-25T12:50:45;96801.81;;;7.76;100.00
12178;BME280;6152;48.728;9.256;2023-04-25T12:53:14;96798.31;;;7.77;100.00
12178;BME280;6152;48.728;9.256;2023-04-25T12:55:40;96791.44;;;7.92;100.00
12178;BME280;6152;48.728;9.256;2023-04-25T12:58:06;96796.31;;;7.82;100.00
12178;BME280;6152;48.728;9.256;2023-04-25T13:00:32;96786.66;;;8.00;100.00
12178;BME280;6152;48.728;9.256;2023-04-25T13:02:59;96789.13;;;8.03;100.00
12178;BME280;6152;48.728;9.256;2023-04-25T13:05:25;96782.91;;;8.05;100.00
12178;BME280;6152;48.728;9.256;2023-04-25T13:07:52;96783.25;;;7.99;100.00
12178;BME280;6152;48.728;9.256;2023-04-25T13:10:18;96778.03;;;8.15;100.00
12178;BME280;6152;48.728;9.256;2023-04-25T13:12:44;96778.44;;;8.39;100.00
12178;BME280;6152;48.728;9.256;2023-04-25T13:15:11;96783.25;;;8.45;100.00
12178;BME280;6152;48.728;9.256;2023-04-25T13:17:38;96779.56;;;8.79;100.00
12178;BME280;6152;48.728;9.256;2023-04-25T13:20:05;96780.69;;;8.89;100.00
12178;BME280;6152;48.728;9.256;2023-04-25T13:22:37;96792.03;;;9.30;100.00